Weather at Middenmeer Aerodrome

Public forecast

Using degrees Celsius for public forecast. Weather courtesy of forecast.io.

Closest aviation weather report (METAR) to Middenmeer Aerodrome

Closest report is De Kooy Airport, 10.9 nm (20.2 km) NW.

2022/12/03 15:55 (retrieved 8 minutes ago)

EHKD 031555Z AUTO 07016KT 040V100 9999 SCT017 OVC083 03/M01 Q1021 WHT TEMPO SCT014

Closest aviation forecast (TAF) to Middenmeer Aerodrome

Closest forecast is De Kooy Airport, 10.9 nm (20.2 km) NW.

2022/12/03 14:00 (retrieved 2 hours ago)

TAF TAF EHKD 031301Z 0314/0402 08013KT 9999 FEW018 BKN070 PROB30 TEMPO 0314/0402 SCT014